Time;durP1;ratioP1;P1;durP2;ratioP2;P2;SDS_P1;SDS_P2;PMS_P1;PMS_P2;Temp;Humidity;BMP_temperature;BMP_pressure;BME280_temperature;BME280_humidity;BME280_pressure;Samples;Min_cycle;Max_cycle;Signal;HPM_P1;HPM_P2
2024/04/22 00:01:03;;;;;;;6.80;4.20;;;;;;;2.54;88.85;100504.52;1764934;81;27480;-57
2024/04/22 00:03:32;;;;;;;8.80;4.90;;;;;;;2.53;88.61;100506.90;1764868;81;25577;-59
2024/04/22 00:05:58;;;;;;;9.50;4.67;;;;;;;2.51;88.52;100498.34;1764926;81;25504;-58
2024/04/22 00:08:24;;;;;;;8.75;4.30;;;;;;;2.50;88.49;100498.84;1764858;81;25574;-58
2024/04/22 00:11:03;;;;;;;7.50;4.47;;;;;;;2.49;88.52;100495.91;1764932;81;25682;-58
2024/04/22 00:13:30;;;;;;;6.27;4.40;;;;;;;2.50;88.51;100500.72;1765031;81;28314;-58
2024/04/22 00:15:58;;;;;;;8.18;4.00;;;;;;;2.47;88.35;100491.86;1764792;81;25872;-58
2024/04/22 00:18:25;;;;;;;8.35;4.47;;;;;;;2.47;88.28;100495.36;1764897;81;25642;-57
2024/04/22 00:20:52;;;;;;;6.75;3.90;;;;;;;2.46;88.03;100488.94;1764847;81;25419;-58
2024/04/22 00:23:18;;;;;;;14.80;5.25;;;;;;;2.44;88.19;100490.52;1764940;81;25481;-57
2024/04/22 00:25:44;;;;;;;5.58;4.25;;;;;;;2.42;88.02;100484.63;1764877;81;27515;-55
2024/04/22 00:28:10;;;;;;;6.50;4.22;;;;;;;2.41;87.95;100482.46;1764711;81;26911;-56
2024/04/22 00:30:37;;;;;;;9.33;4.55;;;;;;;2.39;87.67;100477.91;1764927;81;25429;-56
2024/04/22 00:33:04;;;;;;;6.92;4.45;;;;;;;2.38;87.72;100477.64;1764757;81;25724;-59
2024/04/22 00:35:32;;;;;;;5.53;3.58;;;;;;;2.39;87.79;100481.11;1764903;81;25636;-59
2024/04/22 00:37:58;;;;;;;6.17;4.47;;;;;;;2.37;87.51;100476.56;1764917;81;27492;-59
2024/04/22 00:40:24;;;;;;;13.65;3.45;;;;;;;2.35;87.50;100478.14;1764797;81;25492;-59
2024/04/22 00:42:51;;;;;;;7.40;3.90;;;;;;;2.32;87.13;100477.30;1764868;81;25564;-58
2024/04/22 00:45:18;;;;;;;5.95;3.77;;;;;;;2.31;87.02;100478.88;1764945;81;26101;-60
2024/04/22 00:47:45;;;;;;;5.62;4.15;;;;;;;2.29;87.04;100478.33;1764909;81;25399;-60
2024/04/22 00:50:13;;;;;;;5.90;3.77;;;;;;;2.28;87.14;100476.16;1764860;81;28111;-59
2024/04/22 00:52:41;;;;;;;6.33;4.10;;;;;;;2.28;87.19;100480.17;1764758;81;25395;-59
2024/04/22 00:55:09;;;;;;;8.48;4.15;;;;;;;2.28;86.93;100476.70;1764865;81;25481;-58
2024/04/22 00:57:39;;;;;;;5.12;3.90;;;;;;;2.27;86.80;100477.23;1764840;81;25785;-59
2024/04/22 01:00:08;;;;;;;7.30;4.55;;;;;;;2.28;87.06;100479.38;1764923;80;25405;-59
2024/04/22 01:02:34;;;;;;;7.72;4.33;;;;;;;2.28;87.12;100481.50;1764978;81;28122;-59
2024/04/22 01:05:01;;;;;;;6.28;3.87;;;;;;;2.28;86.80;100477.50;1764777;81;25472;-59
2024/04/22 01:07:29;;;;;;;5.03;4.15;;;;;;;2.27;86.90;100471.10;1764875;81;25451;-57
2024/04/22 01:09:56;;;;;;;9.10;4.17;;;;;;;2.27;86.92;100473.23;1764787;81;25849;-60
2024/04/22 01:12:22;;;;;;;6.42;4.30;;;;;;;2.28;86.89;100476.16;1764870;81;25598;-58
2024/04/22 01:14:48;;;;;;;7.17;4.00;;;;;;;2.28;87.02;100471.36;1764819;81;29620;-58
2024/04/22 01:17:14;;;;;;;8.63;3.75;;;;;;;2.28;86.72;100475.37;1764786;81;25671;-59
2024/04/22 01:19:40;;;;;;;8.83;4.05;;;;;;;2.24;86.02;100469.72;1764860;81;25623;-59
2024/04/22 01:22:06;;;;;;;12.30;4.67;;;;;;;2.20;85.79;100468.08;1764847;81;25556;-60
2024/04/22 01:24:33;;;;;;;4.83;3.50;;;;;;;2.19;85.98;100470.46;1764870;81;25625;-59
2024/04/22 01:27:02;;;;;;;5.78;3.90;;;;;;;2.18;86.13;100477.37;1764816;81;27492;-59
2024/04/22 01:29:29;;;;;;;6.83;3.58;;;;;;;2.18;86.09;100482.20;1764688;81;25594;-59
2024/04/22 01:31:55;;;;;;;8.05;3.60;;;;;;;2.17;86.20;100473.91;1764857;81;25558;-58
2024/04/22 01:34:22;;;;;;;4.75;3.55;;;;;;;2.17;86.05;100479.25;1767202;81;25462;-60
2024/04/22 01:36:48;;;;;;;6.25;3.80;;;;;;;2.17;85.85;100479.25;1767921;81;25400;-59
2024/04/22 01:39:14;;;;;;;6.62;3.80;;;;;;;2.16;85.97;100476.31;1767882;81;27483;-60
2024/04/22 01:41:41;;;;;;;6.40;4.50;;;;;;;2.18;86.13;100470.70;1767714;81;25475;-57
2024/04/22 01:44:07;;;;;;;6.50;3.87;;;;;;;2.18;86.12;100472.87;1767785;81;25468;-59
2024/04/22 01:46:33;;;;;;;5.33;3.77;;;;;;;2.18;86.11;100474.70;1767729;81;25516;-59
2024/04/22 01:48:59;;;;;;;5.90;4.12;;;;;;;2.18;85.91;100474.70;1767789;81;25400;-58
2024/04/22 01:51:25;;;;;;;5.75;3.40;;;;;;;2.18;85.94;100472.03;1767820;81;27486;-57
2024/04/22 01:53:52;;;;;;;4.78;3.70;;;;;;;2.18;86.02;100467.53;1767666;81;25680;-59
2024/04/22 01:56:18;;;;;;;4.28;3.52;;;;;;;2.18;85.92;100463.53;1767801;80;25609;-59
2024/04/22 01:58:44;;;;;;;4.47;3.40;;;;;;;2.19;85.93;100464.33;1767737;81;25449;-59
2024/04/22 02:01:10;;;;;;;6.17;4.05;;;;;;;2.18;85.83;100461.36;1767818;81;25399;-59
2024/04/22 02:03:37;;;;;;;4.60;3.47;;;;;;;2.18;85.73;100460.86;1767820;81;27532;-60
2024/04/22 02:06:04;;;;;;;5.40;3.60;;;;;;;2.18;85.83;100462.70;1767708;81;25395;-59
2024/04/22 02:08:30;;;;;;;7.92;3.52;;;;;;;2.16;85.66;100453.63;1767770;81;25466;-59
2024/04/22 02:10:56;;;;;;;8.15;3.80;;;;;;;2.17;85.82;100459.77;1767757;81;25626;-60
2024/04/22 02:13:22;;;;;;;4.50;3.22;;;;;;;2.17;85.48;100461.10;1767823;81;25460;-56
2024/04/22 02:15:49;;;;;;;4.92;3.67;;;;;;;2.16;85.51;100460.30;1767917;81;27712;-59
2024/04/22 02:18:16;;;;;;;6.42;3.40;;;;;;;2.15;85.32;100449.88;1767841;81;25868;-59
2024/04/22 02:20:44;;;;;;;6.15;4.10;;;;;;;2.13;85.16;100450.63;1767943;81;25622;-57
2024/04/22 02:23:10;;;;;;;4.17;3.33;;;;;;;2.12;85.15;100454.37;1767877;81;25506;-57
2024/04/22 02:25:36;;;;;;;6.03;3.65;;;;;;;2.11;85.22;100452.23;1768016;81;25558;-58
2024/04/22 02:28:03;;;;;;;7.90;5.00;;;;;;;2.11;85.25;100445.56;1768038;81;27483;-57
2024/04/22 02:30:29;;;;;;;5.08;3.77;;;;;;;2.09;85.17;100440.98;1767946;81;25578;-58
2024/04/22 02:32:55;;;;;;;8.35;4.22;;;;;;;2.09;85.28;100439.65;1767919;81;25395;-59
2024/04/22 02:35:22;;;;;;;4.62;3.60;;;;;;;2.08;84.97;100442.56;1768467;81;25610;-59
2024/04/22 02:37:48;;;;;;;5.60;3.70;;;;;;;2.05;84.80;100443.87;1768530;81;25398;-59
2024/04/22 02:40:14;;;;;;;7.00;4.45;;;;;;;2.03;85.00;100446.00;1768458;81;27510;-58
2024/04/22 02:42:40;;;;;;;6.85;3.70;;;;;;;2.04;85.09;100443.59;1768397;81;25698;-59
2024/04/22 02:45:08;;;;;;;6.03;3.42;;;;;;;2.04;85.09;100447.59;1768453;81;25613;-56
2024/04/22 02:47:34;;;;;;;6.50;3.60;;;;;;;2.01;84.94;100436.08;1768458;81;26072;-58
2024/04/22 02:50:00;;;;;;;7.20;3.92;;;;;;;1.99;84.90;100440.35;1768464;81;25273;-57
2024/04/22 02:52:26;;;;;;;5.15;3.70;;;;;;;1.99;84.98;100439.02;1768480;81;27534;-59
2024/04/22 02:54:52;;;;;;;6.75;3.62;;;;;;;1.99;84.98;100434.19;1768356;81;25381;-59
2024/04/22 02:57:19;;;;;;;5.87;3.55;;;;;;;1.97;84.82;100434.97;1768483;81;25577;-56
2024/04/22 02:59:45;;;;;;;5.80;3.80;;;;;;;1.95;84.73;100437.88;1768440;81;34808;-58
2024/04/22 03:02:11;;;;;;;4.00;3.60;;;;;;;1.94;84.61;100440.29;1768480;81;25587;-58
2024/04/22 03:04:37;;;;;;;6.62;3.80;;;;;;;1.94;84.83;100436.80;1768480;81;27587;-59
2024/04/22 03:07:05;;;;;;;5.12;3.55;;;;;;;1.95;84.84;100437.88;1768392;81;25618;-58
2024/04/22 03:09:34;;;;;;;5.20;3.25;;;;;;;1.96;84.83;100439.51;1768412;81;25567;-59
2024/04/22 03:11:59;;;;;;;4.42;3.08;;;;;;;1.96;84.96;100442.68;1768162;81;26065;-58
2024/04/22 03:14:25;;;;;;;5.55;3.72;;;;;;;1.97;84.89;100439.77;1768502;81;25570;-58
2024/04/22 03:16:51;;;;;;;6.53;3.60;;;;;;;1.97;84.83;100443.77;1768481;81;27502;-55
2024/04/22 03:19:17;;;;;;;7.20;3.40;;;;;;;1.97;84.87;100441.64;1768333;81;25554;-59
2024/04/22 03:21:44;;;;;;;8.58;4.15;;;;;;;1.98;84.77;100440.59;1768408;81;25529;-58
2024/04/22 03:24:10;;;;;;;7.15;4.00;;;;;;;1.98;84.65;100441.93;1768437;81;25599;-57
2024/04/22 03:26:36;;;;;;;7.80;4.15;;;;;;;1.97;84.54;100440.30;1768494;81;25400;-59
2024/04/22 03:29:02;;;;;;;4.45;3.37;;;;;;;1.95;84.50;100431.22;1768419;81;28539;-58
2024/04/22 03:31:31;;;;;;;7.92;4.10;;;;;;;1.96;84.53;100424.00;1768311;81;25436;-56
2024/04/22 03:33:59;;;;;;;5.40;3.62;;;;;;;1.96;84.40;100425.34;1768186;80;25422;-58
2024/04/22 03:36:26;;;;;;;6.03;3.60;;;;;;;1.94;84.46;100427.45;1768136;81;25646;-59
2024/04/22 03:38:52;;;;;;;6.28;3.77;;;;;;;1.95;84.59;100431.22;1767879;81;25429;-59
2024/04/22 03:41:18;;;;;;;6.22;3.80;;;;;;;1.95;84.55;100427.21;1767872;81;27555;-58
2024/04/22 03:43:45;;;;;;;4.35;3.50;;;;;;;1.95;84.44;100421.88;1767761;81;25777;-59
2024/04/22 03:51:44;;;;;;;4.67;3.75;;;;;;;1.95;84.35;100433.08;1767936;81;25566;-59
2024/04/22 03:54:10;;;;;;;6.97;3.90;;;;;;;1.91;84.20;100425.28;1767868;81;27572;-59
2024/04/22 03:56:36;;;;;;;5.42;3.77;;;;;;;1.90;84.02;100431.69;1767749;81;25399;-59
2024/04/22 03:59:03;;;;;;;6.28;3.40;;;;;;;1.86;84.00;100428.17;1767906;81;25550;-59
2024/04/22 04:01:29;;;;;;;7.20;3.25;;;;;;;1.87;84.20;100430.30;1767822;81;25599;-59
2024/04/22 04:03:56;;;;;;;5.30;3.30;;;;;;;1.88;84.36;100431.13;1767901;81;25609;-59
2024/04/22 04:06:23;;;;;;;5.47;3.30;;;;;;;1.89;84.31;100432.22;1767873;81;27577;-59
2024/04/22 04:08:49;;;;;;;5.05;3.30;;;;;;;1.90;84.25;100426.35;1767788;81;25622;-57
2024/04/22 04:11:16;;;;;;;4.12;3.25;;;;;;;1.88;84.25;100428.47;1767819;81;25449;-57
2024/04/22 04:13:43;;;;;;;4.80;3.30;;;;;;;1.90;84.21;100439.69;1767940;81;26086;-59
2024/04/22 04:16:10;;;;;;;5.75;3.45;;;;;;;1.91;84.35;100439.44;1767910;80;25609;-58
2024/04/22 04:18:41;;;;;;;5.47;3.83;;;;;;;1.93;84.52;100443.20;1767866;81;27484;-58
2024/04/22 04:21:07;;;;;;;5.40;3.22;;;;;;;1.96;84.52;100447.52;1767751;81;25631;-59
2024/04/22 04:23:34;;;;;;;4.12;3.25;;;;;;;2.00;84.47;100451.83;1767839;81;25460;-60
2024/04/22 04:26:04;;;;;;;7.03;3.52;;;;;;;2.02;84.41;100451.84;1767804;81;26159;-59
2024/04/22 04:28:30;;;;;;;5.42;3.27;;;;;;;2.05;84.58;100454.02;1768040;81;25543;-59
2024/04/22 04:30:58;;;;;;;4.65;3.67;;;;;;;2.09;84.57;100459.66;1739579;81;27508;-59
2024/04/22 04:33:25;;;;;;;9.43;3.70;;;;;;;2.14;84.59;100457.59;1767558;81;25846;-59
2024/04/22 04:36:02;;;;;;;4.92;3.15;;;;;;;2.18;84.53;100460.03;1760806;81;25473;-59
2024/04/22 04:38:32;;;;;;;3.65;3.20;;;;;;;2.21;84.42;100456.36;1760406;81;25494;-60
2024/04/22 04:40:59;;;;;;;4.35;3.65;;;;;;;2.23;84.25;100458.75;1760165;81;25640;-58
2024/04/22 04:43:27;;;;;;;5.50;3.22;;;;;;;2.24;83.92;100462.52;1760801;81;28130;-59
2024/04/22 04:45:54;;;;;;;6.08;3.25;;;;;;;2.26;83.80;100467.61;1760715;81;25563;-59
2024/04/22 04:48:22;;;;;;;5.28;4.12;;;;;;;2.29;83.83;100467.11;1760803;81;25678;-59
2024/04/22 04:50:49;;;;;;;5.50;3.35;;;;;;;2.31;84.00;100465.53;1760737;81;25630;-59
2024/04/22 04:53:20;;;;;;;4.28;3.37;;;;;;;2.35;84.09;100470.13;1760778;81;25452;-57
2024/04/22 04:55:47;;;;;;;6.97;3.77;;;;;;;2.38;84.06;100467.47;1760827;81;28075;-59
2024/04/22 04:58:14;;;;;;;6.15;4.17;;;;;;;2.42;84.01;100469.94;1760713;81;25733;-60
2024/04/22 05:00:41;;;;;;;8.25;3.67;;;;;;;2.48;84.19;100477.47;1760767;81;25574;-60
2024/04/22 05:03:08;;;;;;;5.72;3.50;;;;;;;2.54;84.33;100479.15;1760766;81;25524;-60
2024/04/22 05:05:35;;;;;;;7.60;4.37;;;;;;;2.60;84.40;100481.59;1760831;81;25487;-59
2024/04/22 05:08:03;;;;;;;6.67;3.50;;;;;;;2.65;83.91;100482.72;1760802;81;27501;-59
2024/04/22 05:10:30;;;;;;;7.27;3.47;;;;;;;2.70;84.02;100484.11;1760914;81;25558;-59
2024/04/22 05:12:57;;;;;;;6.12;3.70;;;;;;;2.73;83.74;100474.27;1760794;81;25581;-58
2024/04/22 05:15:23;;;;;;;4.30;3.60;;;;;;;2.78;83.56;100477.78;1760704;81;27745;-58
2024/04/22 05:17:50;;;;;;;5.83;3.90;;;;;;;2.81;83.38;100475.16;1760874;80;25571;-59
2024/04/22 05:20:16;;;;;;;5.60;3.90;;;;;;;2.86;83.53;100471.70;1760736;81;27585;-59
2024/04/22 05:22:43;;;;;;;6.97;3.83;;;;;;;2.90;83.27;100479.51;1760720;81;25440;-57
2024/04/22 05:25:10;;;;;;;4.17;3.70;;;;;;;2.96;83.64;100479.81;1760784;81;25454;-58
2024/04/22 05:27:36;;;;;;;6.87;3.70;;;;;;;3.01;83.33;100478.52;1760723;81;25550;-59
2024/04/22 05:30:04;;;;;;;8.68;4.17;;;;;;;3.06;83.30;100473.77;1760776;81;25417;-59
2024/04/22 05:32:32;;;;;;;7.72;3.62;;;;;;;3.09;83.00;100479.41;1760793;81;28171;-59
2024/04/22 05:37:43;;;;;;;6.10;3.70;;;;;;;3.15;82.93;100478.39;1760808;81;25640;-58
2024/04/22 05:40:10;;;;;;;6.45;3.42;;;;;;;3.16;82.11;100484.54;1760763;81;25576;-58
2024/04/22 05:42:36;;;;;;;8.15;3.65;;;;;;;3.17;82.10;100479.48;1760809;81;25472;-59
2024/04/22 05:45:04;;;;;;;5.22;4.12;;;;;;;3.21;82.33;100481.11;1760773;81;28108;-59
2024/04/22 05:47:30;;;;;;;8.30;4.00;;;;;;;3.27;82.69;100483.57;1760682;81;25561;-56
2024/04/22 05:49:57;;;;;;;11.73;5.30;;;;;;;3.33;82.83;100486.55;1760801;81;25390;-59
2024/04/22 05:52:23;;;;;;;8.33;4.65;;;;;;;3.42;83.24;100482.06;1760899;81;25504;-58
2024/04/22 05:54:49;;;;;;;6.00;4.12;;;;;;;3.48;82.73;100475.70;1760927;81;25562;-55
2024/04/22 05:57:15;;;;;;;11.53;4.20;;;;;;;3.52;82.52;100484.81;1760916;81;26575;-58
2024/04/22 05:59:42;;;;;;;4.92;4.08;;;;;;;3.52;81.88;100474.11;1760838;81;25597;-57
2024/04/22 06:02:09;;;;;;;6.47;3.77;;;;;;;3.54;81.23;100477.33;1760927;81;25422;-58
2024/04/22 06:04:35;;;;;;;7.47;4.03;;;;;;;3.52;81.17;100486.15;1760855;81;25571;-59
2024/04/22 06:07:01;;;;;;;6.87;4.30;;;;;;;3.54;81.41;100484.02;1760927;81;25442;-59
2024/04/22 06:09:28;;;;;;;5.12;3.70;;;;;;;3.55;80.93;100482.96;1760968;81;27449;-59
2024/04/22 06:11:54;;;;;;;5.33;3.98;;;;;;;3.57;81.13;100480.03;1760806;81;27389;-57
2024/04/22 06:14:20;;;;;;;8.08;4.47;;;;;;;3.60;81.26;100485.67;1760907;80;25473;-58
2024/04/22 06:16:49;;;;;;;5.67;3.95;;;;;;;3.68;81.53;100476.38;1760889;81;25814;-58
2024/04/22 06:19:15;;;;;;;6.95;4.50;;;;;;;3.76;81.79;100478.54;1735585;81;25748;-59
2024/04/22 06:21:41;;;;;;;5.85;4.47;;;;;;;3.83;81.25;100474.30;1760922;80;27533;-58
2024/04/22 06:24:07;;;;;;;8.00;4.58;;;;;;;3.91;81.82;100468.45;1760829;81;25777;-58
2024/04/22 06:26:33;;;;;;;6.30;4.92;;;;;;;4.01;81.36;100471.73;1760912;80;25553;-58
2024/04/22 06:29:00;;;;;;;5.33;4.08;;;;;;;4.06;80.48;100476.56;1760888;81;25584;-57
2024/04/22 06:31:26;;;;;;;6.00;4.03;;;;;;;4.15;80.79;100467.49;1760911;81;25630;-58
2024/04/22 06:33:52;;;;;;;10.25;3.67;;;;;;;4.34;81.57;100466.48;1760917;80;27583;-58
2024/04/22 06:36:18;;;;;;;4.97;3.72;;;;;;;4.49;80.83;100466.56;1760730;81;25551;-58
2024/04/22 06:38:44;;;;;;;7.58;3.92;;;;;;;4.62;80.06;100472.48;1760914;81;25589;-58
2024/04/22 06:41:10;;;;;;;5.20;4.03;;;;;;;4.68;78.91;100466.88;1760858;81;25499;-58
2024/04/22 06:43:37;;;;;;;5.30;4.10;;;;;;;4.73;79.02;100469.28;1760962;81;25211;-57
2024/04/22 06:46:04;;;;;;;4.75;3.98;;;;;;;4.83;79.34;100464.73;1760948;81;28056;-57
2024/04/22 06:48:30;;;;;;;6.35;3.87;;;;;;;4.96;79.82;100469.33;1760874;81;25489;-57
2024/04/22 06:50:58;;;;;;;4.72;3.92;;;;;;;5.11;79.21;100481.91;1760901;81;25261;-57
2024/04/22 06:53:27;;;;;;;4.35;3.52;;;;;;;5.15;78.08;100479.78;1790290;80;25479;-58
2024/04/22 06:55:53;;;;;;;6.70;3.60;;;;;;;5.17;77.72;100482.19;1790311;80;25542;-57
2024/04/22 06:58:20;;;;;;;11.88;5.62;;;;;;;5.19;77.39;100483.55;1790289;80;27519;-58
2024/04/22 07:00:47;;;;;;;5.22;3.37;;;;;;;5.24;76.45;100484.06;1790301;80;25628;-58
2024/04/22 07:03:14;;;;;;;4.37;3.60;;;;;;;5.26;77.38;100473.90;1790288;79;25393;-57
2024/04/22 07:05:40;;;;;;;6.33;3.67;;;;;;;5.41;77.29;100481.11;1790249;79;25565;-59
2024/04/22 07:08:07;;;;;;;5.28;3.70;;;;;;;5.60;78.52;100482.17;1790289;79;25692;-58
2024/04/22 07:10:33;;;;;;;5.58;3.45;;;;;;;5.87;78.02;100486.95;1790238;80;28219;-58
2024/04/22 07:12:59;;;;;;;7.17;3.42;;;;;;;6.09;77.67;100482.06;1790210;79;25440;-57
2024/04/22 07:15:26;;;;;;;4.12;3.50;;;;;;;6.27;76.57;100487.38;1790303;80;25615;-59
2024/04/22 07:17:52;;;;;;;4.40;3.33;;;;;;;6.43;76.32;100484.08;1790165;80;25633;-58
2024/04/22 07:20:18;;;;;;;6.67;5.25;;;;;;;6.80;76.17;100488.19;1769502;79;25874;-58
2024/04/22 07:22:45;;;;;;;14.40;10.20;;;;;;;7.06;75.68;100481.28;1761122;81;27557;-56
2024/04/22 07:25:11;;;;;;;11.33;8.88;;;;;;;7.27;75.48;100481.91;1755164;81;25524;-56
2024/04/22 07:27:39;;;;;;;4.58;3.47;;;;;;;7.39;74.66;100481.02;1755224;81;25638;-52
2024/04/22 07:30:08;;;;;;;3.45;2.83;;;;;;;7.41;72.30;100481.54;1755177;81;25470;-55
2024/04/22 07:32:35;;;;;;;7.67;2.90;;;;;;;7.37;71.43;100487.76;1755385;81;25579;-56
2024/04/22 07:35:03;;;;;;;4.42;2.85;;;;;;;7.37;71.13;100485.07;1744522;81;27450;-57
2024/04/22 07:37:35;;;;;;;5.75;3.20;;;;;;;7.41;70.29;100486.92;1719232;83;25604;-56
2024/04/22 07:40:18;;;;;;;4.33;3.20;;;;;;;7.29;70.02;100487.29;1719523;83;25600;-54
2024/04/22 07:42:47;;;;;;;3.80;3.35;;;;;;;7.25;69.79;100494.33;1719485;83;26044;-56
2024/04/22 07:45:14;;;;;;;5.60;3.47;;;;;;;7.19;69.61;100495.45;1719595;83;25482;-57
2024/04/22 07:47:41;;;;;;;6.05;2.80;;;;;;;7.16;70.18;100498.69;1719464;83;27519;-56
2024/04/22 07:50:07;;;;;;;4.58;3.08;;;;;;;7.22;70.36;100495.41;1719399;83;25785;-56
2024/04/22 07:52:35;;;;;;;5.35;3.10;;;;;;;7.18;69.73;100503.24;1719457;83;25577;-55
2024/04/22 07:55:04;;;;;;;3.47;3.10;;;;;;;7.13;69.21;100499.80;1719409;83;25631;-56
2024/04/22 07:57:38;;;;;;;5.10;3.58;;;;;;;7.01;68.70;100502.28;1719670;83;32329;-56
2024/04/22 08:00:07;;;;;;;4.50;3.65;;;;;;;6.91;68.73;100502.36;1718698;83;27366;-57
2024/04/22 08:02:36;;;;;;;5.25;3.77;;;;;;;6.87;69.31;100508.05;1718556;83;26198;-56
2024/04/22 08:05:04;;;;;;;9.45;7.92;;;;;;;6.81;68.38;100505.11;1691370;82;25747;-58
2024/04/22 08:07:34;;;;;;;54.90;41.55;;;;;;;6.70;68.41;100506.52;1690124;84;25657;-59
2024/04/22 08:10:01;;;;;;;6.03;4.78;;;;;;;6.66;68.96;100503.33;1690190;84;25662;-54
2024/04/22 08:12:28;;;;;;;4.90;3.37;;;;;;;6.67;69.54;100497.66;1689939;84;27992;-53
2024/04/22 08:14:54;;;;;;;4.80;3.40;;;;;;;6.65;68.74;100500.38;1690329;84;25751;-57
2024/04/22 08:17:20;;;;;;;4.40;3.65;;;;;;;6.64;68.93;100496.89;1690611;84;25672;-54
2024/04/22 08:19:47;;;;;;;5.62;3.05;;;;;;;6.69;69.22;100502.23;1690584;84;25587;-54
2024/04/22 08:22:16;;;;;;;4.85;3.17;;;;;;;6.70;68.94;100497.11;1690626;84;25614;-56
2024/04/22 08:24:44;;;;;;;8.10;3.87;;;;;;;6.72;69.03;100494.97;1690712;84;27473;-54
2024/04/22 08:27:13;;;;;;;4.58;3.20;;;;;;;6.73;68.76;100494.41;1690518;84;25736;-56
2024/04/22 08:29:38;;;;;;;3.77;3.47;;;;;;;6.70;68.44;100494.41;1737571;82;25203;-57
2024/04/22 08:32:06;;;;;;;4.08;3.02;;;;;;;6.66;68.35;100493.38;1723014;83;25834;-57
2024/04/22 08:34:32;;;;;;;4.80;3.42;;;;;;;6.63;68.24;100491.23;1723060;82;25667;-54
2024/04/22 08:36:59;;;;;;;4.10;3.60;;;;;;;6.58;67.62;100489.92;1739534;81;28058;-57
2024/04/22 08:39:25;;;;;;;3.65;3.30;;;;;;;6.56;68.06;100490.75;1724758;83;26391;-57
2024/04/22 08:41:53;;;;;;;6.08;3.70;;;;;;;6.53;67.75;100500.70;1724920;82;25538;-57
2024/04/22 08:44:20;;;;;;;4.70;3.90;;;;;;;6.49;67.16;100494.28;1739465;82;25624;-58
2024/04/22 08:46:47;;;;;;;5.10;4.55;;;;;;;6.46;66.90;100500.20;1712202;83;25620;-57
2024/04/22 08:49:13;;;;;;;3.83;3.40;;;;;;;6.43;67.08;100499.41;1724844;82;27425;-54
2024/04/22 08:51:42;;;;;;;4.60;3.67;;;;;;;6.46;66.51;100508.27;1724772;82;25553;-58
2024/04/22 08:54:08;;;;;;;4.95;3.42;;;;;;;6.50;66.41;100508.79;1739484;82;25562;-57
2024/04/22 08:56:36;;;;;;;5.47;3.35;;;;;;;6.48;66.51;100510.12;1724902;83;25591;-56
2024/04/22 08:59:03;;;;;;;4.65;3.37;;;;;;;6.49;66.13;100513.09;1724862;82;25577;-55
2024/04/22 09:01:29;;;;;;;3.47;3.15;;;;;;;6.51;66.30;100510.93;1724845;83;27860;-57
2024/04/22 09:03:55;;;;;;;3.47;3.12;;;;;;;6.44;65.82;100516.59;1723185;83;25557;-56
2024/04/22 09:06:21;;;;;;;3.40;3.08;;;;;;;6.38;64.89;100520.92;1723302;83;25566;-56
2024/04/22 09:08:47;;;;;;;3.37;2.52;;;;;;;6.25;65.36;100523.12;1723230;83;25480;-56
2024/04/22 09:11:19;;;;;;;3.52;2.90;;;;;;;6.23;64.98;100530.66;1723288;83;25578;-55
2024/04/22 09:13:46;;;;;;;4.85;2.65;;;;;;;6.19;65.91;100528.24;1739494;82;28227;-57
2024/04/22 09:16:17;;;;;;;3.62;3.17;;;;;;;6.17;65.37;100525.83;1739356;82;25631;-57
2024/04/22 09:18:44;;;;;;;4.20;2.80;;;;;;;6.17;65.55;100537.11;1739459;82;25576;-56
2024/04/22 09:21:11;;;;;;;3.87;2.98;;;;;;;6.13;65.49;100548.13;1739401;82;25639;-55
2024/04/22 09:23:38;;;;;;;2.95;2.65;;;;;;;6.11;65.39;100549.77;1739517;82;25479;-56
2024/04/22 09:26:06;;;;;;;3.40;2.90;;;;;;;6.07;65.56;100548.68;1739451;82;27517;-57
2024/04/22 09:28:38;;;;;;;2.90;2.45;;;;;;;6.05;65.62;100556.21;1716280;82;25957;-57
2024/04/22 09:31:05;;;;;;;3.02;2.55;;;;;;;6.02;65.57;100561.33;1738827;82;25591;-58
2024/04/22 09:33:35;;;;;;;3.62;2.40;;;;;;;6.03;66.06;100562.40;1739387;82;25598;-57
2024/04/22 09:36:07;;;;;;;4.53;2.25;;;;;;;6.09;65.91;100564.52;1747804;81;25441;-57
2024/04/22 09:38:35;;;;;;;3.47;2.62;;;;;;;6.11;65.78;100570.42;1758068;81;27483;-57
2024/04/22 09:41:04;;;;;;;6.47;2.40;;;;;;;6.11;65.13;100572.59;1758004;81;25442;-58
2024/04/22 09:43:34;;;;;;;4.22;2.70;;;;;;;6.06;64.53;100567.75;1727441;83;25480;-57
2024/04/22 09:46:03;;;;;;;3.75;2.60;;;;;;;6.06;64.72;100578.48;1725068;81;26209;-56
2024/04/22 09:48:31;;;;;;;2.85;2.50;;;;;;;6.07;64.97;100579.56;1752625;81;25434;-58
2024/04/22 09:51:01;;;;;;;3.50;2.42;;;;;;;6.10;65.45;100576.89;1752393;81;27584;-56
2024/04/22 09:53:28;;;;;;;3.37;2.70;;;;;;;6.15;64.89;100579.02;1752098;81;25405;-57
2024/04/22 09:56:06;;;;;;;3.45;2.50;;;;;;;6.14;64.53;100576.05;1752422;81;25540;-57
2024/04/22 09:58:34;;;;;;;3.58;2.55;;;;;;;6.15;64.63;100579.56;1752054;81;26304;-58
2024/04/22 10:01:01;;;;;;;4.67;2.70;;;;;;;6.14;64.28;100581.97;1752613;81;25630;-60
2024/04/22 10:03:29;;;;;;;5.60;2.80;;;;;;;6.10;64.21;100594.34;1752383;81;27490;-58
2024/04/22 10:06:01;;;;;;;2.75;2.40;;;;;;;6.05;64.30;100590.33;1724865;81;25937;-57
2024/04/22 10:08:28;;;;;;;4.25;2.77;;;;;;;5.99;62.95;100594.88;1752426;81;25417;-54
2024/04/22 10:11:11;;;;;;;3.52;2.87;;;;;;;5.82;63.01;100598.36;1752391;81;25440;-57
2024/04/22 10:13:38;;;;;;;6.25;2.75;;;;;;;5.72;63.37;100597.30;1752450;81;25420;-58
2024/04/22 10:16:09;;;;;;;4.45;2.72;;;;;;;5.68;63.71;100596.77;1752447;81;28106;-55
2024/04/22 10:18:45;;;;;;;4.55;3.12;;;;;;;5.64;63.88;100599.18;1751634;81;25589;-58
2024/04/22 10:21:12;;;;;;;5.17;2.85;;;;;;;5.64;64.05;100594.36;1752451;81;25547;-58
2024/04/22 10:23:38;;;;;;;7.00;3.10;;;;;;;5.65;64.27;100601.31;1752381;81;25494;-58
2024/04/22 10:26:21;;;;;;;5.45;3.00;;;;;;;5.68;64.14;100594.08;1752568;81;25389;-57
2024/04/22 10:28:49;;;;;;;4.65;3.52;;;;;;;5.69;64.12;100587.10;1752576;81;27453;-57
2024/04/22 10:31:21;;;;;;;4.17;3.40;;;;;;;5.69;63.64;100596.50;1752460;81;25575;-58
2024/04/22 10:33:49;;;;;;;4.25;3.05;;;;;;;5.65;62.90;100579.84;1752485;81;25397;-58
2024/04/22 10:36:16;;;;;;;5.08;3.20;;;;;;;5.58;62.92;100586.82;1755691;81;25508;-57
2024/04/22 10:38:42;;;;;;;4.22;2.75;;;;;;;5.55;63.09;100592.20;1761216;81;25416;-57
2024/04/22 10:41:10;;;;;;;5.42;3.22;;;;;;;5.55;64.00;100591.38;1761160;81;29601;-57
2024/04/22 10:43:38;;;;;;;3.87;3.47;;;;;;;5.53;63.69;100587.61;1761094;81;25636;-57
2024/04/22 10:46:05;;;;;;;4.20;3.10;;;;;;;5.59;63.96;100586.55;1761156;81;25557;-57
2024/04/22 10:48:31;;;;;;;3.33;3.02;;;;;;;5.63;63.54;100591.39;1761177;81;25511;-56
2024/04/22 10:50:57;;;;;;;5.47;3.47;;;;;;;5.63;63.82;100592.73;1761170;81;25574;-57
2024/04/22 10:53:24;;;;;;;6.03;3.58;;;;;;;5.64;63.30;100584.97;1761128;81;27358;-57
2024/04/22 10:55:50;;;;;;;7.42;3.58;;;;;;;5.66;63.62;100586.84;1761073;81;25645;-57
2024/04/22 10:58:16;;;;;;;5.00;3.72;;;;;;;5.70;63.90;100587.35;1761144;81;25496;-55
2024/04/22 11:00:46;;;;;;;6.28;3.17;;;;;;;5.80;64.61;100589.23;1761063;81;25556;-57
2024/04/22 11:03:13;;;;;;;3.40;2.90;;;;;;;5.96;64.96;100588.73;1761198;81;25528;-58
2024/04/22 11:05:41;;;;;;;4.35;3.45;;;;;;;6.09;64.16;100594.06;1761159;81;27914;-57
2024/04/22 11:08:09;;;;;;;4.75;3.33;;;;;;;6.15;63.51;100586.28;1761146;81;26155;-55
2024/04/22 11:10:36;;;;;;;7.15;3.52;;;;;;;6.14;62.65;100590.03;1761082;81;25564;-57
2024/04/22 11:13:05;;;;;;;4.50;3.08;;;;;;;6.12;62.19;100594.33;1735161;81;25561;-57
2024/04/22 11:15:31;;;;;;;6.33;3.12;;;;;;;6.13;62.49;100590.58;1761150;81;25617;-54
2024/04/22 11:18:08;;;;;;;3.70;3.12;;;;;;;6.19;62.72;100594.59;1761131;81;27551;-57
2024/04/22 11:20:36;;;;;;;3.42;3.08;;;;;;;6.23;62.84;100596.47;1761068;81;25459;-57
2024/04/22 11:23:04;;;;;;;3.50;2.42;;;;;;;6.34;63.00;100599.93;1735134;81;25426;-57
2024/04/22 11:25:30;;;;;;;6.65;3.62;;;;;;;6.41;62.74;100604.47;1761086;81;25573;-56
2024/04/22 11:27:57;;;;;;;7.83;3.40;;;;;;;6.43;62.25;100600.17;1761111;81;25629;-54
2024/04/22 11:30:23;;;;;;;6.33;3.55;;;;;;;6.41;62.37;100603.13;1761129;81;27545;-57
2024/04/22 11:32:50;;;;;;;3.40;2.95;;;;;;;6.42;62.92;100603.41;1761015;81;27284;-56
2024/04/22 11:35:17;;;;;;;5.78;3.25;;;;;;;6.43;61.88;100595.59;1761177;81;25400;-57
2024/04/22 11:37:43;;;;;;;3.27;2.65;;;;;;;6.40;61.70;100602.05;1758539;81;26035;-57
2024/04/22 11:40:10;;;;;;;6.17;3.40;;;;;;;6.34;61.34;100607.45;1758264;81;25507;-57
2024/04/22 11:42:36;;;;;;;4.60;2.90;;;;;;;6.34;61.76;100609.34;1758242;81;28063;-57